Time;durP1;ratioP1;P1;durP2;ratioP2;P2;SDS_P1;SDS_P2;PMS_P1;PMS_P2;Temp;Humidity;BMP_temperature;BMP_pressure;BME280_temperature;BME280_humidity;BME280_pressure;Samples;Min_cycle;Max_cycle;Signal;HPM_P1;HPM_P2
2024/02/14 00:00:13;;;;;;;18.60;16.10;;;;;;;7.75;100.00;99799.45;87530;270;136649;-72
2024/02/14 00:02:16;;;;;;;17.10;14.30;;;;;;;7.76;100.00;99799.06;87733;267;22581;-74
2024/02/14 00:04:18;;;;;;;17.60;14.00;;;;;;;7.78;100.00;99799.61;87650;266;136769;-73
2024/02/14 00:06:20;;;;;;;17.70;14.90;;;;;;;7.81;100.00;99807.83;87698;270;23666;-75
2024/02/14 00:08:22;;;;;;;16.30;14.10;;;;;;;7.84;100.00;99812.48;87755;273;137843;-74
2024/02/14 00:10:24;;;;;;;18.00;15.10;;;;;;;7.89;100.00;99813.94;87763;267;22597;-74
2024/02/14 00:12:26;;;;;;;16.10;14.40;;;;;;;7.90;100.00;99812.47;87849;263;137046;-74
2024/02/14 00:14:28;;;;;;;15.70;14.00;;;;;;;7.94;100.00;99813.30;87682;274;23645;-72
2024/02/14 00:16:30;;;;;;;16.40;14.60;;;;;;;7.98;100.00;99815.72;87735;271;136562;-72
2024/02/14 00:18:32;;;;;;;19.50;15.40;;;;;;;7.98;100.00;99816.41;87658;267;24023;-73
2024/02/14 00:20:35;;;;;;;15.50;13.30;;;;;;;7.99;100.00;99821.77;88101;266;136450;-73
2024/02/14 00:22:39;;;;;;;15.70;14.10;;;;;;;7.99;100.00;99825.16;87600;274;22599;-73
2024/02/14 00:24:41;;;;;;;17.10;15.00;;;;;;;7.98;100.00;99825.42;87624;274;137328;-73
2024/02/14 00:26:42;;;;;;;19.30;15.50;;;;;;;7.97;100.00;99821.42;88114;271;22558;-72
2024/02/14 00:28:44;;;;;;;19.80;15.00;;;;;;;8.00;100.00;99825.45;87997;274;136720;-73
2024/02/14 00:30:46;;;;;;;17.90;14.80;;;;;;;8.00;100.00;99821.35;87700;272;22859;-73
2024/02/14 00:32:47;;;;;;;18.70;15.50;;;;;;;7.99;100.00;99825.93;87548;267;138068;-73
2024/02/14 00:34:49;;;;;;;16.60;14.60;;;;;;;7.97;100.00;99829.06;87606;268;22965;-72
2024/02/14 00:36:52;;;;;;;16.40;14.30;;;;;;;7.93;100.00;99824.15;87348;279;137260;-73
2024/02/14 00:38:54;;;;;;;17.30;14.80;;;;;;;7.91;100.00;99822.27;87628;278;22575;-72
2024/02/14 00:40:55;;;;;;;14.20;12.70;;;;;;;7.89;100.00;99822.83;87352;267;136784;-72
2024/02/14 00:42:57;;;;;;;14.00;12.40;;;;;;;7.87;100.00;99825.57;87658;270;25022;-73
2024/02/14 00:44:59;;;;;;;13.30;11.30;;;;;;;7.79;100.00;99826.25;87380;270;136906;-73
2024/02/14 00:47:02;;;;;;;15.30;12.40;;;;;;;7.77;100.00;99828.38;87898;269;22542;-72
2024/02/14 00:49:04;;;;;;;16.40;13.20;;;;;;;7.71;100.00;99827.61;87515;278;136802;-72
2024/02/14 00:51:06;;;;;;;18.50;13.70;;;;;;;7.67;100.00;99826.52;87600;269;25332;-74
2024/02/14 00:53:08;;;;;;;14.50;12.40;;;;;;;7.69;100.00;99825.20;87654;269;136776;-72
2024/02/14 00:55:10;;;;;;;12.80;11.50;;;;;;;7.70;100.00;99824.59;87643;271;24235;-73
2024/02/14 00:57:12;;;;;;;13.50;12.10;;;;;;;7.72;100.00;99823.61;87500;270;136913;-72
2024/02/14 00:59:14;;;;;;;12.40;10.90;;;;;;;7.69;100.00;99824.13;87560;269;22576;-73
2024/02/14 01:01:16;;;;;;;14.70;12.10;;;;;;;7.65;100.00;99823.45;87544;271;136678;-74
2024/02/14 01:03:18;;;;;;;13.70;11.80;;;;;;;7.63;100.00;99819.56;87658;271;22802;-72
2024/02/14 01:05:19;;;;;;;13.10;11.10;;;;;;;7.59;100.00;99817.70;87477;274;136256;-73
2024/02/14 01:07:22;;;;;;;13.00;11.60;;;;;;;7.52;100.00;99817.85;87598;274;25079;-72
2024/02/14 01:09:23;;;;;;;10.50;9.40;;;;;;;7.50;100.00;99820.38;87527;270;136913;-73
2024/02/14 01:11:25;;;;;;;13.20;11.10;;;;;;;7.45;100.00;99822.52;87657;267;25099;-73
2024/02/14 01:13:27;;;;;;;11.40;10.20;;;;;;;7.40;100.00;99824.43;87570;272;136706;-71
2024/02/14 01:15:29;;;;;;;10.60;9.60;;;;;;;7.38;100.00;99821.47;87539;270;24062;-71
2024/02/14 01:17:30;;;;;;;10.40;9.30;;;;;;;7.34;100.00;99822.02;87514;270;136736;-72
2024/02/14 01:19:33;;;;;;;11.00;9.50;;;;;;;7.32;100.00;99819.85;87624;266;24225;-71
2024/02/14 01:21:35;;;;;;;10.70;9.10;;;;;;;7.28;100.00;99814.46;87421;278;136896;-72
2024/02/14 01:23:37;;;;;;;10.50;9.50;;;;;;;7.23;100.00;99812.45;87517;270;25259;-72
2024/02/14 01:25:39;;;;;;;10.70;9.40;;;;;;;7.19;100.00;99813.38;87495;277;137701;-72
2024/02/14 01:27:41;;;;;;;9.30;8.40;;;;;;;7.16;100.00;99809.01;87635;271;22601;-74
2024/02/14 01:29:43;;;;;;;9.20;8.20;;;;;;;7.12;100.00;99810.36;87664;270;136588;-71
2024/02/14 01:31:45;;;;;;;9.40;8.50;;;;;;;7.08;100.00;99808.70;87647;266;26001;-72
2024/02/14 01:33:47;;;;;;;9.40;8.50;;;;;;;7.04;100.00;99809.83;87483;271;136586;-71
2024/02/14 01:35:49;;;;;;;7.80;7.20;;;;;;;6.99;100.00;99807.39;87691;271;26305;-72
2024/02/14 01:37:52;;;;;;;8.30;7.50;;;;;;;6.93;100.00;99803.13;87297;279;136589;-70
2024/02/14 01:39:54;;;;;;;8.90;8.00;;;;;;;6.90;100.00;99802.25;87380;272;23944;-71
2024/02/14 01:41:55;;;;;;;8.80;7.90;;;;;;;6.87;100.00;99803.98;87529;269;136393;-70
2024/02/14 01:43:59;;;;;;;9.40;8.50;;;;;;;6.82;100.00;99807.09;87561;279;22642;-73
2024/02/14 01:46:07;;;;;;;7.80;7.10;;;;;;;6.78;100.00;99809.46;87536;269;138901;-71
2024/02/14 01:48:09;;;;;;;7.40;6.70;;;;;;;6.78;100.00;99811.95;87452;270;136737;-72
2024/02/14 01:50:11;;;;;;;8.30;7.50;;;;;;;6.77;100.00;99813.80;87644;269;22524;-71
2024/02/14 01:52:13;;;;;;;8.50;7.60;;;;;;;6.76;100.00;99812.52;87495;270;136717;-72
2024/02/14 01:54:17;;;;;;;7.40;6.70;;;;;;;6.75;100.00;99812.83;87437;271;24150;-73
2024/02/14 01:56:19;;;;;;;8.60;7.70;;;;;;;6.80;100.00;99813.33;87641;278;136793;-73
2024/02/14 01:58:20;;;;;;;8.10;7.40;;;;;;;6.67;100.00;99820.46;87513;267;22642;-72
2024/02/14 02:00:23;;;;;;;7.40;6.80;;;;;;;6.64;100.00;99823.23;87547;278;136751;-73
2024/02/14 02:02:26;;;;;;;8.50;7.60;;;;;;;6.57;100.00;99820.00;87465;271;22556;-74
2024/02/14 02:04:28;;;;;;;8.60;7.70;;;;;;;6.53;100.00;99820.77;87481;271;136348;-75
2024/02/14 02:06:30;;;;;;;8.90;8.00;;;;;;;6.51;100.00;99819.15;87561;269;24004;-73
2024/02/14 02:08:33;;;;;;;8.00;7.20;;;;;;;6.49;100.00;99818.09;87316;267;136510;-75
2024/02/14 02:10:35;;;;;;;8.60;7.70;;;;;;;6.49;100.00;99816.99;87683;267;22573;-72
2024/02/14 02:12:40;;;;;;;8.60;7.80;;;;;;;6.54;100.00;99818.59;87537;267;136607;-73
2024/02/14 02:14:42;;;;;;;7.70;7.00;;;;;;;6.54;100.00;99819.58;87593;264;22591;-73
2024/02/14 02:16:44;;;;;;;8.60;7.80;;;;;;;6.53;100.00;99825.17;87490;274;138010;-73
2024/02/14 02:18:46;;;;;;;7.80;7.00;;;;;;;6.52;100.00;99827.30;87563;275;22722;-72
2024/02/14 02:20:48;;;;;;;7.80;7.20;;;;;;;6.50;100.00;99827.91;87255;272;136433;-73
2024/02/14 02:22:51;;;;;;;9.20;6.30;;;;;;;6.47;100.00;99834.38;87832;270;23117;-72
2024/02/14 02:24:52;;;;;;;7.80;7.10;;;;;;;6.47;100.00;99837.43;87634;274;136496;-74
2024/02/14 02:26:56;;;;;;;7.60;6.80;;;;;;;6.49;100.00;99835.77;87584;278;22779;-76
2024/02/14 02:28:59;;;;;;;7.60;6.90;;;;;;;6.50;100.00;99840.72;87600;268;137633;-72
2024/02/14 02:31:01;;;;;;;7.40;6.80;;;;;;;6.47;100.00;99840.54;87626;269;24058;-71
2024/02/14 02:33:04;;;;;;;6.60;6.10;;;;;;;6.47;100.00;99839.11;87574;266;137996;-71
2024/02/14 02:35:06;;;;;;;8.20;7.40;;;;;;;6.47;100.00;99839.09;87775;273;26217;-73
2024/02/14 02:37:09;;;;;;;8.10;7.40;;;;;;;6.47;100.00;99844.77;87625;269;137866;-72
2024/02/14 02:39:13;;;;;;;9.00;8.10;;;;;;;6.49;100.00;99843.10;87890;267;25182;-74
2024/02/14 02:41:16;;;;;;;7.90;7.10;;;;;;;6.49;100.00;99843.38;87424;278;136860;-73
2024/02/14 02:43:18;;;;;;;7.00;6.40;;;;;;;6.47;100.00;99846.07;88461;266;22667;-72
2024/02/14 02:45:20;;;;;;;7.70;6.90;;;;;;;6.48;100.00;99847.73;89007;266;136512;-70
2024/02/14 02:47:22;;;;;;;9.40;8.50;;;;;;;6.47;100.00;99847.29;87858;274;23764;-72
2024/02/14 02:49:25;;;;;;;8.40;7.60;;;;;;;6.46;100.00;99851.03;87580;269;137266;-73
2024/02/14 02:51:27;;;;;;;7.70;7.10;;;;;;;6.47;100.00;99851.99;87590;274;22547;-72
2024/02/14 02:53:29;;;;;;;11.60;8.80;;;;;;;6.48;100.00;99855.50;87575;271;137301;-71
2024/02/14 02:55:32;;;;;;;10.20;9.00;;;;;;;6.44;100.00;99856.44;87670;270;22593;-74
2024/02/14 02:57:36;;;;;;;10.70;9.00;;;;;;;6.41;100.00;99852.45;87593;270;136891;-73
2024/02/14 02:59:42;;;;;;;9.90;8.70;;;;;;;6.43;100.00;99853.90;87522;270;22567;-73
2024/02/14 03:01:44;;;;;;;10.10;8.30;;;;;;;6.40;100.00;99854.84;87453;274;136937;-74
2024/02/14 03:03:46;;;;;;;10.60;8.00;;;;;;;6.41;100.00;99853.73;87415;271;22590;-73
2024/02/14 03:05:48;;;;;;;8.50;7.60;;;;;;;6.38;100.00;99852.34;87610;278;137465;-73
2024/02/14 03:07:52;;;;;;;8.60;6.90;;;;;;;6.37;100.00;99856.84;87787;271;27421;-73
2024/02/14 03:09:54;;;;;;;8.20;7.00;;;;;;;6.35;100.00;99857.90;87516;271;137160;-72
2024/02/14 03:11:56;;;;;;;8.20;7.40;;;;;;;6.34;100.00;99862.48;87711;267;24112;-70
2024/02/14 03:13:58;;;;;;;6.20;5.60;;;;;;;6.35;100.00;99859.94;87581;273;137566;-73
2024/02/14 03:16:00;;;;;;;7.10;6.40;;;;;;;6.35;100.00;99865.16;87578;270;26261;-74
2024/02/14 03:18:07;;;;;;;7.80;5.80;;;;;;;6.36;100.00;99863.27;87469;266;24011;-73
2024/02/14 03:20:14;;;;;;;6.20;5.60;;;;;;;6.39;100.00;99863.48;87426;266;137806;-74
2024/02/14 03:22:19;;;;;;;5.40;5.00;;;;;;;6.34;100.00;99861.91;87535;270;24245;-74
2024/02/14 03:24:21;;;;;;;6.10;5.50;;;;;;;6.30;100.00;99858.69;87567;269;137165;-74
2024/02/14 03:26:23;;;;;;;3.80;3.50;;;;;;;6.22;100.00;99860.77;87698;269;25240;-75
2024/02/14 03:28:25;;;;;;;6.00;5.20;;;;;;;6.15;100.00;99860.71;87466;270;137227;-75
2024/02/14 03:30:29;;;;;;;5.40;5.00;;;;;;;6.08;100.00;99857.25;87450;270;22606;-74
2024/02/14 03:32:32;;;;;;;6.50;4.90;;;;;;;6.05;100.00;99863.05;87509;269;136630;-74
2024/02/14 03:34:35;;;;;;;4.20;3.80;;;;;;;6.02;100.00;99869.87;87504;269;22559;-72
2024/02/14 03:36:39;;;;;;;4.60;4.30;;;;;;;6.06;100.00;99872.84;87505;270;136612;-70
2024/02/14 03:38:41;;;;;;;6.20;5.60;;;;;;;6.06;100.00;99884.88;87723;269;24506;-73
2024/02/14 03:40:45;;;;;;;5.60;5.20;;;;;;;6.05;100.00;99891.33;87517;270;137377;-72
2024/02/14 03:42:48;;;;;;;5.60;5.10;;;;;;;6.05;100.00;99896.05;87475;269;22691;-73
2024/02/14 03:44:49;;;;;;;6.30;5.70;;;;;;;6.00;100.00;99888.42;87414;274;136932;-72
2024/02/14 03:46:51;;;;;;;6.10;5.40;;;;;;;5.94;100.00;99886.57;87511;267;22589;-73
2024/02/14 03:48:54;;;;;;;5.90;5.40;;;;;;;5.94;100.00;99886.30;87416;270;137813;-75
2024/02/14 03:50:57;;;;;;;5.70;5.10;;;;;;;5.93;100.00;99891.36;87625;274;24006;-74
2024/02/14 03:52:59;;;;;;;5.50;5.00;;;;;;;5.92;100.00;99892.49;87530;266;137546;-73
2024/02/14 03:55:01;;;;;;;5.00;4.60;;;;;;;5.91;100.00;99891.38;87560;270;22568;-72
2024/02/14 03:57:05;;;;;;;4.60;4.20;;;;;;;5.94;100.00;99889.80;87435;270;138914;-72
2024/02/14 03:59:07;;;;;;;5.00;4.60;;;;;;;5.93;100.00;99890.79;87704;270;25115;-71
2024/02/14 04:01:09;;;;;;;4.10;3.80;;;;;;;5.94;100.00;99897.04;87432;266;136672;-74
2024/02/14 04:03:14;;;;;;;3.40;3.20;;;;;;;5.94;100.00;99897.94;87585;269;22555;-72
2024/02/14 04:05:15;;;;;;;4.60;3.50;;;;;;;5.91;100.00;99901.45;87358;269;136425;-72
2024/02/14 04:07:18;;;;;;;3.00;2.70;;;;;;;5.91;100.00;99901.95;87514;271;25127;-74
2024/02/14 04:09:19;;;;;;;3.40;3.20;;;;;;;5.84;100.00;99902.52;87353;270;137391;-74
2024/02/14 04:11:22;;;;;;;4.40;4.00;;;;;;;5.81;100.00;99908.02;87573;269;25207;-74
2024/02/14 04:13:24;;;;;;;3.00;2.90;;;;;;;5.80;100.00;99910.53;87459;270;136941;-73
2024/02/14 04:15:26;;;;;;;3.90;3.60;;;;;;;5.80;100.00;99913.21;87563;274;24114;-70
2024/02/14 04:17:27;;;;;;;3.70;3.40;;;;;;;5.82;100.00;99917.40;87569;270;137953;-72
2024/02/14 04:19:29;;;;;;;4.20;3.80;;;;;;;5.78;100.00;99921.14;87707;267;22560;-74
2024/02/14 04:21:32;;;;;;;3.50;3.20;;;;;;;5.79;100.00;99917.58;87207;271;137390;-75
2024/02/14 04:23:35;;;;;;;3.20;3.00;;;;;;;5.85;100.00;99925.36;87470;267;22581;-73
2024/02/14 04:25:37;;;;;;;5.20;3.20;;;;;;;5.82;100.00;99925.51;87422;270;136871;-74
2024/02/14 04:27:38;;;;;;;3.40;3.00;;;;;;;5.81;100.00;99928.24;87672;274;22519;-75
2024/02/14 04:29:40;;;;;;;2.50;2.40;;;;;;;5.84;100.00;99926.33;87357;271;136718;-75
2024/02/14 04:31:43;;;;;;;3.00;2.80;;;;;;;5.81;100.00;99928.21;87442;278;22563;-72
2024/02/14 04:33:49;;;;;;;4.10;2.30;;;;;;;5.73;100.00;99931.96;87187;272;137476;-72
2024/02/14 04:35:51;;;;;;;2.20;2.10;;;;;;;5.65;100.00;99931.50;87643;274;25149;-73
2024/02/14 04:37:53;;;;;;;3.00;2.90;;;;;;;5.62;100.00;99935.04;87522;274;137659;-75
2024/02/14 04:39:55;;;;;;;2.50;2.30;;;;;;;5.60;100.00;99936.89;87593;275;25319;-76
2024/02/14 04:41:56;;;;;;;2.80;2.60;;;;;;;5.57;100.00;99941.58;87633;271;136522;-72
2024/02/14 04:44:06;;;;;;;3.20;3.00;;;;;;;5.53;100.00;99944.48;87435;278;139025;-72
2024/02/14 04:46:09;;;;;;;2.40;2.30;;;;;;;5.50;100.00;99945.75;87648;270;26487;-75
2024/02/14 04:48:10;;;;;;;3.10;2.90;;;;;;;5.46;100.00;99946.84;87465;270;136537;-74
2024/02/14 04:50:13;;;;;;;2.20;2.00;;;;;;;5.43;100.00;99949.29;87645;269;22515;-76
2024/02/14 04:52:16;;;;;;;3.00;2.80;;;;;;;5.38;100.00;99949.45;87602;277;136702;-74
2024/02/14 04:54:19;;;;;;;2.20;2.10;;;;;;;5.36;100.00;99954.76;87425;271;24653;-73
2024/02/14 04:56:21;;;;;;;3.00;2.80;;;;;;;5.36;100.00;99952.84;87583;271;136583;-71
2024/02/14 04:58:23;;;;;;;2.90;2.70;;;;;;;5.28;100.00;99958.98;87484;269;22521;-68
2024/02/14 05:00:25;;;;;;;3.10;2.90;;;;;;;5.26;100.00;99961.42;87597;270;136593;-71
2024/02/14 05:02:28;;;;;;;3.10;2.80;;;;;;;5.24;100.00;99962.35;88068;267;22560;-72
2024/02/14 05:04:31;;;;;;;3.50;3.20;;;;;;;5.22;100.00;99963.43;88869;269;136152;-76
2024/02/14 05:06:33;;;;;;;2.80;2.60;;;;;;;5.21;100.00;99972.21;87653;275;25140;-74
2024/02/14 05:08:35;;;;;;;3.30;3.00;;;;;;;5.19;100.00;99974.82;87624;274;136638;-72
2024/02/14 05:10:37;;;;;;;3.10;2.70;;;;;;;5.17;100.00;99979.17;87685;279;25952;-73
2024/02/14 05:12:40;;;;;;;3.00;2.70;;;;;;;5.14;100.00;99974.71;87473;273;136539;-75
2024/02/14 05:14:42;;;;;;;3.20;2.90;;;;;;;5.12;100.00;99975.27;87598;273;25162;-73
2024/02/14 05:16:44;;;;;;;3.80;3.40;;;;;;;5.10;100.00;99980.61;87429;269;136611;-70
2024/02/14 05:18:46;;;;;;;3.10;2.80;;;;;;;5.09;100.00;99983.85;87793;275;26431;-77
2024/02/14 05:20:49;;;;;;;2.90;2.70;;;;;;;5.09;100.00;99988.08;87838;266;136559;-79
2024/02/14 05:22:51;;;;;;;2.70;2.60;;;;;;;5.09;100.00;99988.84;87984;271;24738;-80
2024/02/14 05:24:53;;;;;;;2.60;2.40;;;;;;;5.07;100.00;99986.59;87760;274;136404;-75
2024/02/14 05:26:55;;;;;;;2.80;2.60;;;;;;;5.03;100.00;99988.20;87680;268;22567;-75
2024/02/14 05:28:57;;;;;;;3.20;3.00;;;;;;;4.99;100.00;99990.75;87575;278;136776;-74
2024/02/14 05:31:00;;;;;;;2.70;2.50;;;;;;;4.97;100.00;99989.23;87812;267;22515;-78
2024/02/14 05:33:02;;;;;;;3.10;2.80;;;;;;;4.95;100.00;99994.66;87380;277;138199;-77
2024/02/14 05:35:05;;;;;;;3.00;2.80;;;;;;;4.93;100.00;99993.88;87619;278;25245;-75
2024/02/14 05:37:08;;;;;;;2.80;2.60;;;;;;;4.82;100.00;99994.10;87658;270;136247;-76
2024/02/14 05:39:10;;;;;;;2.40;2.20;;;;;;;4.79;100.00;99993.29;87869;262;22658;-74
2024/02/14 05:41:12;;;;;;;3.30;2.80;;;;;;;4.77;100.00;99990.31;87526;280;137383;-74
2024/02/14 05:43:15;;;;;;;3.80;2.60;;;;;;;4.77;100.00;99990.02;87608;279;25191;-76
2024/02/14 05:45:16;;;;;;;2.40;2.30;;;;;;;4.75;100.00;99992.52;87646;266;136688;-74
2024/02/14 05:47:19;;;;;;;2.00;1.90;;;;;;;4.75;100.00;99998.14;87829;267;22593;-79
2024/02/14 05:49:21;;;;;;;2.10;2.00;;;;;;;4.70;100.00;99995.66;87639;266;136382;-77
2024/02/14 05:51:24;;;;;;;2.50;2.30;;;;;;;4.77;100.00;100000.91;88303;270;22550;-76
2024/02/14 05:53:27;;;;;;;2.30;2.20;;;;;;;4.78;100.00;100005.92;87450;272;136461;-75
2024/02/14 05:55:29;;;;;;;5.10;3.40;;;;;;;4.77;100.00;100003.98;87880;273;24002;-76
2024/02/14 05:57:30;;;;;;;4.00;3.20;;;;;;;4.76;100.00;100010.88;87452;272;136411;-75
2024/02/14 05:59:32;;;;;;;2.90;2.70;;;;;;;4.69;100.00;100009.48;87833;270;22652;-75
2024/02/14 06:01:34;;;;;;;2.90;2.70;;;;;;;4.63;100.00;100010.95;87796;270;136612;-76
2024/02/14 06:03:36;;;;;;;2.50;2.40;;;;;;;4.63;100.00;100014.53;87855;270;25097;-76
2024/02/14 06:05:38;;;;;;;2.80;2.60;;;;;;;4.63;100.00;100016.48;89015;274;136818;-77
2024/02/14 06:07:44;;;;;;;2.40;2.30;;;;;;;4.65;100.00;100019.80;87650;270;22721;-76
2024/02/14 06:09:46;;;;;;;3.00;2.80;;;;;;;4.61;100.00;100021.36;86854;270;875039;-77
2024/02/14 06:11:48;;;;;;;4.10;3.10;;;;;;;4.58;100.00;100028.02;87651;278;23487;-75
2024/02/14 06:13:50;;;;;;;3.10;2.90;;;;;;;4.52;100.00;100024.69;87542;266;136597;-76
2024/02/14 06:15:51;;;;;;;3.10;2.60;;;;;;;4.53;100.00;100027.02;87592;274;23427;-76
2024/02/14 06:17:53;;;;;;;4.00;3.60;;;;;;;4.55;100.00;100026.80;87729;270;136491;-76
2024/02/14 06:19:56;;;;;;;3.90;3.60;;;;;;;4.56;100.00;100031.63;87725;274;22558;-75
2024/02/14 06:21:59;;;;;;;4.10;3.30;;;;;;;4.58;100.00;100035.94;87529;274;136666;-76
2024/02/14 06:24:03;;;;;;;4.20;3.10;;;;;;;4.66;100.00;100041.09;87563;266;22561;-76
2024/02/14 06:26:07;;;;;;;4.10;3.70;;;;;;;4.70;100.00;100044.98;87835;278;25221;-77
2024/02/14 06:28:09;;;;;;;2.80;2.60;;;;;;;4.73;100.00;100047.80;87477;270;137063;-76
2024/02/14 06:30:12;;;;;;;2.90;2.70;;;;;;;4.70;100.00;100050.39;87598;274;22606;-78
2024/02/14 06:32:14;;;;;;;2.90;2.70;;;;;;;4.67;100.00;100049.84;88211;270;137865;-77
2024/02/14 06:34:16;;;;;;;4.60;4.20;;;;;;;4.60;100.00;100054.98;87546;271;22555;-76
2024/02/14 06:36:18;;;;;;;3.40;3.20;;;;;;;4.60;100.00;100055.13;87459;270;136721;-76
2024/02/14 06:38:20;;;;;;;4.20;3.80;;;;;;;4.66;100.00;100059.41;87740;271;24494;-77
2024/02/14 06:40:22;;;;;;;3.70;3.40;;;;;;;4.70;100.00;100061.73;87597;278;137038;-76
2024/02/14 06:42:24;;;;;;;4.90;4.50;;;;;;;4.66;100.00;100064.02;87921;271;25188;-76
2024/02/14 06:44:26;;;;;;;6.30;3.80;;;;;;;4.67;100.00;100057.34;87609;271;136669;-77
2024/02/14 06:46:27;;;;;;;3.10;2.90;;;;;;;4.67;100.00;100058.48;87550;268;23851;-78
2024/02/14 06:48:29;;;;;;;5.30;4.00;;;;;;;4.68;100.00;100061.70;87702;274;136931;-77
2024/02/14 06:50:32;;;;;;;5.80;3.40;;;;;;;4.68;100.00;100060.77;87831;274;22554;-80
2024/02/14 06:52:34;;;;;;;2.60;2.40;;;;;;;4.70;100.00;100055.33;87702;274;137016;-75
2024/02/14 06:54:35;;;;;;;10.70;6.00;;;;;;;4.71;100.00;100063.23;87651;278;22624;-75
2024/02/14 06:56:37;;;;;;;7.40;3.60;;;;;;;4.68;100.00;100061.51;87656;269;137683;-78
2024/02/14 06:58:39;;;;;;;12.50;6.90;;;;;;;4.68;100.00;100068.70;87632;271;22609;-76
2024/02/14 07:00:41;;;;;;;3.80;2.80;;;;;;;4.69;100.00;100070.78;87680;265;136714;-77
2024/02/14 07:02:43;;;;;;;3.80;3.40;;;;;;;4.68;100.00;100075.79;87576;273;22515;-79
2024/02/14 07:04:45;;;;;;;3.30;3.00;;;;;;;4.67;100.00;100079.41;87680;274;136335;-78
2024/02/14 07:06:47;;;;;;;2.80;2.60;;;;;;;4.66;100.00;100080.95;87755;267;24036;-79
2024/02/14 07:08:49;;;;;;;3.10;2.80;;;;;;;4.63;100.00;100086.27;87378;271;138238;-77
2024/02/14 07:10:51;;;;;;;3.00;2.70;;;;;;;4.62;100.00;100089.55;87618;271;25182;-78
2024/02/14 07:12:52;;;;;;;5.50;3.40;;;;;;;4.60;100.00;100096.06;87642;273;136767;-79
2024/02/14 07:14:54;;;;;;;2.60;2.40;;;;;;;4.59;100.00;100098.73;87720;270;25352;-78
2024/02/14 07:16:56;;;;;;;3.30;3.00;;;;;;;4.57;100.00;100100.14;87414;273;137657;-76
2024/02/14 07:18:58;;;;;;;3.20;2.70;;;;;;;4.55;100.00;100102.83;87522;272;25184;-77
2024/02/14 07:21:01;;;;;;;5.40;2.60;;;;;;;4.51;100.00;100103.00;88698;267;136790;-77
2024/02/14 07:23:04;;;;;;;2.70;2.50;;;;;;;4.49;100.00;100106.02;89761;267;22553;-78
2024/02/14 07:25:08;;;;;;;2.90;2.70;;;;;;;4.51;100.00;100101.78;87755;263;136583;-76
2024/02/14 07:27:10;;;;;;;3.40;2.50;;;;;;;4.49;100.00;100099.98;87574;271;22555;-79
2024/02/14 07:29:12;;;;;;;3.40;2.60;;;;;;;4.49;100.00;100106.72;88181;269;136442;-76
2024/02/14 07:31:14;;;;;;;1.90;1.80;;;;;;;4.47;100.00;100110.63;88067;270;22643;-76
2024/02/14 07:33:16;;;;;;;2.80;2.60;;;;;;;4.41;100.00;100106.64;88475;265;136396;-76
2024/02/14 07:35:18;;;;;;;3.30;1.90;;;;;;;4.38;100.00;100105.84;88304;273;22590;-75
2024/02/14 07:37:20;;;;;;;3.20;2.90;;;;;;;4.36;100.00;100102.96;87938;265;138594;-77
2024/02/14 07:39:23;;;;;;;1.90;1.80;;;;;;;4.30;100.00;100100.02;87570;271;22576;-77
2024/02/14 07:41:25;;;;;;;2.30;2.10;;;;;;;4.30;100.00;100104.80;87533;271;136616;-77
2024/02/14 07:43:26;;;;;;;2.70;2.50;;;;;;;4.24;100.00;100106.77;87683;268;22603;-77
2024/02/14 07:45:28;;;;;;;2.20;2.00;;;;;;;4.21;100.00;100106.70;87730;274;138168;-77
2024/02/14 07:47:31;;;;;;;3.80;2.70;;;;;;;4.23;100.00;100108.47;87688;267;23362;-76
2024/02/14 07:49:33;;;;;;;2.90;2.20;;;;;;;4.22;100.00;100111.67;87708;263;136735;-78
2024/02/14 07:51:39;;;;;;;2.40;2.10;;;;;;;4.21;100.00;100115.67;87692;278;23254;-77
2024/02/14 07:53:40;;;;;;;3.40;2.80;;;;;;;4.20;100.00;100115.80;87695;267;136568;-78
2024/02/14 07:55:42;;;;;;;2.20;2.10;;;;;;;4.18;100.00;100116.64;87490;279;22543;-78
2024/02/14 07:57:44;;;;;;;4.10;2.30;;;;;;;4.15;100.00;100117.02;87417;279;136585;-79
2024/02/14 07:59:49;;;;;;;2.40;2.20;;;;;;;4.12;100.00;100113.77;87519;280;22943;-77
2024/02/14 08:01:50;;;;;;;2.60;2.40;;;;;;;4.14;100.00;100123.08;87494;279;136338;-80
2024/02/14 08:03:55;;;;;;;2.70;2.00;;;;;;;4.17;100.00;100123.52;87426;272;22554;-80
2024/02/14 08:05:57;;;;;;;7.70;5.20;;;;;;;4.18;100.00;100122.48;87708;274;136253;-82
2024/02/14 08:07:59;;;;;;;7.50;6.70;;;;;;;4.21;100.00;100128.56;87531;273;22541;-82
2024/02/14 08:10:00;;;;;;;2.70;2.50;;;;;;;4.26;100.00;100125.78;87733;271;137322;-80
2024/02/14 08:12:03;;;;;;;3.10;2.90;;;;;;;4.30;100.00;100134.88;87573;274;137152;-81
2024/02/14 08:14:05;;;;;;;3.90;2.90;;;;;;;4.31;100.00;100133.90;87819;269;25301;-81
2024/02/14 08:16:07;;;;;;;3.00;2.70;;;;;;;4.36;100.00;100140.98;87549;270;136586;-77
2024/02/14 08:18:10;;;;;;;3.50;2.10;;;;;;;4.40;100.00;100147.75;87970;267;22581;-79
2024/02/14 08:20:13;;;;;;;3.10;2.00;;;;;;;4.37;100.00;100149.65;87644;270;139149;-82
2024/02/14 08:22:15;;;;;;;2.20;2.00;;;;;;;4.37;100.00;100149.25;87584;266;25116;-79
2024/02/14 08:24:17;;;;;;;1.90;1.40;;;;;;;4.37;100.00;100151.79;87428;277;137575;-80
2024/02/14 08:26:20;;;;;;;1.90;1.80;;;;;;;4.39;100.00;100150.19;87826;267;25223;-81
2024/02/14 08:28:22;;;;;;;2.20;2.00;;;;;;;4.40;100.00;100159.86;87456;271;136773;-82
2024/02/14 08:30:24;;;;;;;1.70;1.50;;;;;;;4.43;100.00;100163.29;87667;270;25348;-79
2024/02/14 08:32:26;;;;;;;1.70;1.40;;;;;;;4.45;100.00;100163.98;87602;266;136632;-82
2024/02/14 08:34:28;;;;;;;3.50;2.10;;;;;;;4.46;100.00;100169.85;87735;269;22571;-80
2024/02/14 08:36:34;;;;;;;2.70;2.00;;;;;;;4.46;100.00;100169.09;87546;271;137820;-79
2024/02/14 08:38:36;;;;;;;3.70;1.90;;;;;;;4.47;100.00;100167.09;87556;269;23675;-79
2024/02/14 08:40:39;;;;;;;1.50;1.40;;;;;;;4.51;100.00;100171.30;87627;274;136470;-80
2024/02/14 08:42:41;;;;;;;6.40;2.10;;;;;;;4.53;100.00;100172.70;87718;262;22656;-80
2024/02/14 08:44:43;;;;;;;2.10;1.70;;;;;;;4.51;100.00;100174.33;87592;269;136957;-78
2024/02/14 08:46:48;;;;;;;2.70;2.40;;;;;;;4.45;100.00;100179.46;87698;277;22484;-80
2024/02/14 08:48:50;;;;;;;;;;;;;;;4.40;100.00;100179.90;87691;270;136652;-82
2024/02/14 08:50:52;;;;;;;2.00;1.30;;;;;;;4.40;100.00;100177.68;87813;270;25280;-80
2024/02/14 08:52:55;;;;;;;3.40;2.50;;;;;;;4.43;100.00;100183.88;87969;274;136829;-78
2024/02/14 08:54:57;;;;;;;2.60;1.50;;;;;;;4.47;100.00;100188.42;87667;271;22727;-80
2024/02/14 08:56:59;;;;;;;2.00;1.30;;;;;;;4.48;100.00;100190.75;87636;277;136571;-81
2024/02/14 08:59:02;;;;;;;2.30;1.70;;;;;;;4.48;100.00;100188.97;87641;273;22974;-80
2024/02/14 09:01:08;;;;;;;4.90;1.60;;;;;;;4.51;100.00;100189.20;87610;273;137921;-83
2024/02/14 09:03:18;;;;;;;2.20;2.00;;;;;;;4.57;100.00;100184.77;87626;270;24553;-79
2024/02/14 09:05:22;;;;;;;1.80;1.70;;;;;;;4.61;100.00;100183.67;87519;270;136552;-80
2024/02/14 09:07:24;;;;;;;2.20;1.80;;;;;;;4.60;100.00;100184.11;87602;266;24125;-79
2024/02/14 09:09:26;;;;;;;2.50;1.80;;;;;;;4.59;100.00;100185.29;87469;266;137156;-80
2024/02/14 09:11:28;;;;;;;3.10;2.00;;;;;;;4.60;100.00;100185.91;87862;270;22584;-81
2024/02/14 09:13:30;;;;;;;1.80;1.70;;;;;;;4.65;100.00;100192.77;87576;269;136829;-78
2024/02/14 09:15:32;;;;;;;2.00;1.90;;;;;;;4.69;100.00;100192.00;87525;271;22659;-79
2024/02/14 09:17:34;;;;;;;4.10;2.10;;;;;;;4.72;100.00;100190.90;87612;269;138005;-79
2024/02/14 09:19:36;;;;;;;1.90;1.30;;;;;;;4.74;100.00;100195.65;87792;274;23256;-83
2024/02/14 09:21:38;;;;;;;3.00;2.00;;;;;;;4.76;100.00;100194.85;87651;271;137710;-80
2024/02/14 09:23:40;;;;;;;2.80;0.90;;;;;;;4.78;100.00;100192.89;87729;278;22562;-80
2024/02/14 09:25:42;;;;;;;1.80;1.60;;;;;;;4.80;100.00;100195.67;87626;268;136686;-80
2024/02/14 09:27:47;;;;;;;1.80;1.10;;;;;;;4.79;100.00;100195.11;87816;269;25215;-80
2024/02/14 09:29:48;;;;;;;0.90;0.40;;;;;;;4.80;100.00;100202.41;87564;271;137866;-80
2024/02/14 09:31:51;;;;;;;1.40;0.60;;;;;;;4.76;100.00;100205.95;87561;271;22572;-79
2024/02/14 09:33:56;;;;;;;3.90;1.50;;;;;;;4.70;100.00;100205.64;87574;270;137024;-79